Mableton, Georgia
Current Conditions -  °F | °C
As of 12:12 PM on Sunday 23 Nov 2014 (Local Time) from KFTY Reporting Station
Thunderstorm Thunderstorm  
Wind Chill: 52°   Ceiling: 700
Heat Index: 52°   Visibility: 5mi
Dew Point: 49°   Wind: 12mph
Humidity: 89%   Direction: 70°ENE
Pressure: 29.9"   Gusts: NA
Location:  33.82°N, 84.58°W
Report Text: KFTY 231712Z 07010KT 5SM -TSRA BR OVC007 11/09 A2990 RMK AO2 LTG DSNT SE AND S RAB09 TSB06 PRESFR P0001 T01110094
Loading
Personal Weather Stations






























Interactive Weather Map New forecast layout! Learn more

10-Day Weather Forecast

Advertisements
Track Severe Weather on mobile